createdAt,value
2022-10-17T00:39:22.819Z,100.00
2022-10-17T00:41:50.775Z,90.03
2022-10-17T00:44:59.994Z,88.19
2022-10-17T00:47:27.955Z,86.04
2022-10-17T00:49:56.173Z,82.91
2022-10-17T00:52:31.671Z,81.06
2022-10-17T00:55:03.623Z,77.85
2022-10-17T00:57:34.079Z,77.27
2022-10-17T01:00:06.722Z,73.92
2022-10-17T01:02:36.748Z,73.18
2022-10-17T01:05:06.272Z,72.13
2022-10-17T01:07:37.379Z,70.89
2022-10-17T01:10:09.659Z,70.32
2022-10-17T01:12:47.813Z,68.49
2022-10-17T01:15:30.678Z,68.41
2022-10-17T01:18:10.350Z,68.00
2022-10-17T01:21:27.381Z,87.30
2022-10-17T01:24:46.558Z,83.01
2022-10-17T01:27:39.358Z,78.88
2022-10-17T01:30:26.003Z,77.30
2022-10-17T01:33:00.204Z,76.07
2022-10-17T01:35:34.035Z,80.34
2022-10-17T01:38:09.115Z,88.08
2022-10-17T01:40:43.348Z,91.95
2022-10-17T01:43:17.689Z,93.33
2022-10-17T01:45:51.375Z,95.24
2022-10-17T01:48:26.505Z,92.27
2022-10-17T01:51:00.951Z,91.77
2022-10-17T01:53:35.326Z,94.04
2022-10-17T01:56:08.315Z,93.60
2022-10-17T01:58:42.466Z,93.71
2022-10-17T02:01:13.352Z,92.79
2022-10-17T02:03:46.566Z,93.85
2022-10-17T02:06:15.957Z,93.28
2022-10-17T02:08:46.815Z,93.72
2022-10-17T02:11:18.269Z,92.18
2022-10-17T02:14:04.719Z,91.72
2022-10-17T02:16:39.917Z,92.80
2022-10-17T02:19:27.426Z,93.21
2022-10-17T02:22:05.860Z,92.19
2022-10-17T02:24:42.819Z,82.46
2022-10-17T02:27:18.574Z,79.81
2022-10-17T02:29:50.221Z,81.53
2022-10-17T02:32:25.885Z,79.49
2022-10-17T02:34:57.585Z,77.35
2022-10-17T02:37:32.416Z,78.95
2022-10-17T02:40:03.468Z,87.25
2022-10-17T02:42:34.156Z,77.75
2022-10-17T02:45:06.225Z,79.90
2022-10-17T02:47:39.525Z,75.04
2022-10-17T02:50:10.587Z,72.42
2022-10-17T02:52:47.599Z,73.54
2022-10-17T02:55:21.526Z,73.38
2022-10-17T02:57:54.015Z,72.69
2022-10-17T03:00:23.698Z,69.38
2022-10-17T03:02:53.956Z,69.46
2022-10-17T03:05:25.904Z,68.18
2022-10-17T03:07:54.488Z,68.72
2022-10-17T03:10:23.232Z,68.71
2022-10-17T03:12:51.262Z,67.10
2022-10-17T03:15:20.042Z,67.35
2022-10-17T03:17:48.453Z,67.00
2022-10-17T03:20:18.231Z,64.91
2022-10-17T03:22:49.190Z,65.68
2022-10-17T03:25:19.572Z,66.20
2022-10-17T03:27:49.819Z,65.04
2022-10-17T03:30:19.378Z,64.91
2022-10-17T03:32:47.420Z,65.83
2022-10-17T03:35:16.000Z,63.61
2022-10-17T03:37:50.293Z,64.07
2022-10-17T03:40:20.786Z,63.43
2022-10-17T03:42:48.912Z,63.95
2022-10-17T03:45:17.424Z,62.66
2022-10-17T03:47:46.862Z,61.90
2022-10-17T03:50:16.096Z,62.53
2022-10-17T03:52:49.298Z,62.36
2022-10-17T03:55:18.131Z,76.01
2022-10-17T03:57:46.074Z,79.99
2022-10-17T04:00:16.848Z,83.10
2022-10-17T04:02:53.660Z,84.78
2022-10-17T04:05:21.773Z,74.96
2022-10-17T04:07:51.396Z,71.05
2022-10-17T04:10:23.849Z,69.20
2022-10-17T04:12:52.604Z,67.54
2022-10-17T04:15:20.677Z,74.82
2022-10-17T04:17:49.910Z,78.47
2022-10-17T04:20:18.635Z,80.35
2022-10-17T04:22:48.086Z,81.41
2022-10-17T04:25:17.678Z,82.37
2022-10-17T04:27:49.066Z,81.31
2022-10-17T04:30:17.914Z,80.93
2022-10-17T04:32:46.705Z,74.53
2022-10-17T04:35:20.724Z,73.43
2022-10-17T04:37:54.983Z,71.11
2022-10-17T04:40:24.402Z,71.01
2022-10-17T04:42:54.376Z,69.24
2022-10-17T04:45:28.612Z,78.47
2022-10-17T04:48:01.295Z,80.46
2022-10-17T04:50:29.656Z,82.55
2022-10-17T04:53:17.921Z,82.86
2022-10-17T04:55:47.522Z,83.25
2022-10-17T04:58:15.868Z,83.27
2022-10-17T05:00:44.264Z,82.49
2022-10-17T05:03:21.658Z,82.14
2022-10-17T05:05:49.706Z,79.72
2022-10-17T05:08:17.713Z,78.29
2022-10-17T05:10:47.354Z,78.76
2022-10-17T05:13:15.895Z,79.46
2022-10-17T05:15:43.898Z,81.85
2022-10-17T05:18:13.657Z,81.64
2022-10-17T05:20:43.603Z,82.91
2022-10-17T05:23:12.001Z,81.74
2022-10-17T05:25:43.728Z,77.55
2022-10-17T05:28:14.159Z,76.03
2022-10-17T05:30:43.732Z,83.49
2022-10-17T05:33:11.733Z,85.38
2022-10-17T05:35:40.090Z,84.05
2022-10-17T05:38:08.913Z,85.56
2022-10-17T05:40:40.493Z,86.76
2022-10-17T05:43:09.142Z,88.36
2022-10-17T05:45:39.757Z,88.21
2022-10-17T05:48:11.535Z,82.19
2022-10-17T05:50:39.602Z,78.73
2022-10-17T05:53:15.029Z,77.06
2022-10-17T05:55:48.143Z,77.85
2022-10-17T05:58:22.012Z,74.44
2022-10-17T06:00:59.548Z,73.88
2022-10-17T06:03:28.848Z,73.44
2022-10-17T06:05:57.571Z,72.25
2022-10-17T06:08:26.418Z,70.15
2022-10-17T06:11:03.850Z,73.11
2022-10-17T06:13:35.972Z,75.82
2022-10-17T06:16:16.384Z,78.20
2022-10-17T06:18:49.940Z,78.11
2022-10-17T06:21:22.415Z,77.99
2022-10-17T06:23:56.146Z,78.03
2022-10-17T06:26:32.008Z,78.07
2022-10-17T06:29:00.380Z,76.24
2022-10-17T06:31:34.390Z,76.94
2022-10-17T06:34:02.362Z,76.46
2022-10-17T06:36:30.854Z,76.72
2022-10-17T06:38:58.882Z,74.36
2022-10-17T06:41:35.656Z,70.43
2022-10-17T06:44:11.029Z,71.01
2022-10-17T06:47:20.661Z,70.46
2022-10-17T06:49:50.197Z,70.57
2022-10-17T06:52:32.039Z,69.94
2022-10-17T06:55:24.352Z,69.66
2022-10-17T06:58:10.788Z,68.54
2022-10-17T07:00:55.422Z,67.66
2022-10-17T07:03:29.941Z,68.20
2022-10-17T07:05:58.647Z,67.64
2022-10-17T07:08:27.368Z,66.39
2022-10-17T07:10:56.092Z,66.79
2022-10-17T07:13:25.955Z,66.31
2022-10-17T07:18:27.736Z,66.16
2022-10-17T07:20:56.405Z,65.69
2022-10-17T07:23:25.188Z,64.37
2022-10-17T07:25:53.558Z,63.60
2022-10-17T07:28:21.827Z,63.40
2022-10-17T07:30:52.086Z,62.46
2022-10-17T07:33:22.901Z,61.95
2022-10-17T07:35:53.297Z,61.71
2022-10-17T07:38:21.208Z,63.28
2022-10-17T07:40:55.565Z,61.10
2022-10-17T07:43:24.736Z,60.17
2022-10-17T07:45:55.636Z,60.01
2022-10-17T07:48:25.299Z,59.35
2022-10-17T07:50:54.983Z,62.85
2022-10-17T07:53:23.597Z,67.01
2022-10-17T07:55:52.490Z,67.21
2022-10-17T07:58:20.446Z,68.14
2022-10-17T08:00:50.987Z,69.27
2022-10-17T08:03:19.069Z,67.23
2022-10-17T08:05:48.119Z,67.25
2022-10-17T08:08:20.520Z,67.54
2022-10-17T08:10:48.580Z,67.96
2022-10-17T08:13:17.664Z,67.26
2022-10-17T08:15:48.017Z,68.60
2022-10-17T08:18:16.305Z,67.44
2022-10-17T08:20:44.339Z,67.02
2022-10-17T08:23:12.312Z,67.23
2022-10-17T08:25:41.709Z,66.93
2022-10-17T08:28:09.617Z,67.17
2022-10-17T08:30:37.573Z,66.28
2022-10-17T08:33:05.657Z,66.21
2022-10-17T08:35:33.628Z,65.41
2022-10-17T08:38:02.957Z,65.25
2022-10-17T08:40:33.850Z,63.51
2022-10-17T08:43:17.581Z,64.43
2022-10-17T08:45:52.202Z,63.42
2022-10-17T08:48:23.212Z,62.40
2022-10-17T08:50:58.284Z,62.06
2022-10-17T08:53:34.036Z,62.42
2022-10-17T08:56:11.937Z,63.07
2022-10-17T08:58:49.393Z,62.32
2022-10-17T09:01:35.277Z,64.14
2022-10-17T09:04:38.175Z,62.48
2022-10-17T09:07:14.515Z,62.17
2022-10-17T09:09:52.194Z,62.59
2022-10-17T09:12:28.559Z,61.25
2022-10-17T09:15:11.887Z,60.96
2022-10-17T09:17:50.589Z,61.68
2022-10-17T09:20:24.600Z,60.89
2022-10-17T09:22:58.207Z,60.26
2022-10-17T09:25:27.387Z,59.56
2022-10-17T09:28:00.654Z,59.39
2022-10-17T09:30:45.023Z,61.58
2022-10-17T09:33:28.078Z,60.19
2022-10-17T09:36:07.833Z,60.04
2022-10-17T09:38:41.764Z,59.59
2022-10-17T09:41:44.384Z,58.79
2022-10-17T09:44:17.601Z,57.37
2022-10-17T09:46:59.190Z,56.39
2022-10-17T09:49:32.917Z,56.96
2022-10-17T09:52:02.117Z,56.79
2022-10-17T09:54:45.200Z,55.50
2022-10-17T09:57:14.610Z,54.95
2022-10-17T09:59:45.383Z,54.94
2022-10-17T10:02:22.605Z,57.22
2022-10-17T10:05:07.514Z,56.62
2022-10-17T10:07:38.901Z,57.11
2022-10-17T10:10:16.911Z,56.49
2022-10-17T10:13:04.815Z,57.13
2022-10-17T10:15:36.137Z,56.17
2022-10-17T10:18:32.919Z,56.15
2022-10-17T10:21:10.698Z,56.91
2022-10-17T10:23:41.116Z,55.67
2022-10-17T10:26:28.756Z,54.97
2022-10-17T10:29:01.328Z,54.88
2022-10-17T10:31:40.927Z,54.41
2022-10-17T10:34:23.265Z,53.29
2022-10-17T10:37:02.275Z,52.18
2022-10-17T10:39:45.681Z,52.46
2022-10-17T10:42:30.290Z,52.97
2022-10-17T10:45:03.401Z,53.45
2022-10-17T10:47:32.943Z,52.39
2022-10-17T10:50:31.997Z,52.00
2022-10-17T10:53:14.732Z,52.00
2022-10-17T10:55:49.727Z,52.58
2022-10-17T10:58:28.717Z,52.45
2022-10-17T11:01:00.441Z,51.02
2022-10-17T11:03:36.921Z,51.36
2022-10-17T11:06:15.677Z,50.83
2022-10-17T11:08:54.475Z,51.87
2022-10-17T11:11:33.731Z,52.06
2022-10-17T11:14:09.642Z,52.31
2022-10-17T11:16:47.264Z,52.02
2022-10-17T11:19:22.573Z,52.77
2022-10-17T11:22:04.191Z,52.02
2022-10-17T11:24:42.508Z,52.28
2022-10-17T11:27:11.072Z,51.43
2022-10-17T11:29:42.109Z,50.69
2022-10-17T11:32:15.020Z,50.33
2022-10-17T11:34:47.593Z,50.28
2022-10-17T11:37:19.205Z,49.75
2022-10-17T11:39:53.148Z,48.81
2022-10-17T11:42:27.611Z,49.66
2022-10-17T11:45:01.785Z,49.24
2022-10-17T11:47:40.300Z,50.14
2022-10-17T11:53:15.665Z,48.80
2022-10-17T11:55:53.712Z,49.75
2022-10-17T11:58:34.254Z,48.79
2022-10-17T12:01:14.551Z,47.98
2022-10-17T12:04:03.820Z,47.97
2022-10-17T12:07:01.932Z,48.24
2022-10-17T12:09:40.969Z,49.52
2022-10-17T12:12:15.346Z,48.16
2022-10-17T12:14:45.813Z,48.40
2022-10-17T12:17:32.961Z,48.25
2022-10-17T12:20:35.600Z,48.70
2022-10-17T12:23:27.274Z,48.04
2022-10-17T12:26:03.175Z,47.36
2022-10-17T12:28:44.856Z,46.13
2022-10-17T12:31:29.567Z,47.15
2022-10-17T12:34:03.883Z,46.90
2022-10-17T12:36:42.221Z,46.51
2022-10-17T12:39:49.567Z,46.87
2022-10-17T12:42:51.842Z,47.13
2022-10-17T12:45:56.399Z,46.74
2022-10-17T12:49:02.652Z,46.39
2022-10-17T12:51:51.594Z,45.30
2022-10-17T12:54:19.863Z,45.89
2022-10-17T12:56:52.217Z,45.32
2022-10-17T12:59:25.414Z,45.28
2022-10-17T13:02:00.162Z,46.32
2022-10-17T13:04:30.087Z,45.31
2022-10-17T13:07:01.129Z,44.95
2022-10-17T13:09:32.272Z,45.16
2022-10-17T13:12:03.118Z,44.94
2022-10-17T13:14:33.023Z,44.90
2022-10-17T13:17:04.544Z,45.61
2022-10-17T13:19:42.880Z,45.44
2022-10-17T13:22:16.705Z,45.77
2022-10-17T13:24:45.216Z,46.08
2022-10-17T13:27:26.208Z,46.61
2022-10-17T13:29:56.259Z,47.36
2022-10-17T13:32:27.544Z,46.90
2022-10-17T13:35:10.181Z,47.32
2022-10-17T13:37:44.766Z,47.74
2022-10-17T13:40:40.721Z,48.35
2022-10-17T13:43:16.300Z,48.40
2022-10-17T13:45:49.493Z,48.33
2022-10-17T13:48:25.828Z,48.11
2022-10-17T13:50:59.149Z,49.15
2022-10-17T13:53:32.873Z,48.81
2022-10-17T13:56:26.514Z,50.58
2022-10-17T13:58:56.145Z,50.85
2022-10-17T14:01:26.464Z,50.97
2022-10-17T14:04:09.456Z,50.88
2022-10-17T14:06:47.594Z,51.01
2022-10-17T14:09:23.218Z,50.10
2022-10-17T14:12:01.169Z,50.26
2022-10-17T14:14:46.042Z,50.83
2022-10-17T14:17:24.991Z,51.21
2022-10-17T14:20:16.473Z,51.07
2022-10-17T14:22:50.641Z,50.69
2022-10-17T14:25:31.957Z,51.05
2022-10-17T14:28:08.179Z,51.07
2022-10-17T14:30:55.818Z,51.35
2022-10-17T14:33:27.812Z,51.03
2022-10-17T14:36:00.021Z,51.31
2022-10-17T14:38:30.210Z,50.52
2022-10-17T14:41:29.654Z,50.91
2022-10-17T14:43:55.568Z,51.54
2022-10-17T14:46:27.193Z,51.15
2022-10-17T14:48:58.376Z,51.16
2022-10-17T14:51:32.462Z,51.29
2022-10-17T14:54:21.636Z,52.09
2022-10-17T14:56:52.844Z,52.79
2022-10-17T14:59:51.672Z,53.08
2022-10-17T15:02:12.458Z,52.97
2022-10-17T15:04:41.148Z,54.00
2022-10-17T15:07:14.228Z,53.97
2022-10-17T15:09:42.541Z,54.67
2022-10-17T15:12:15.919Z,54.56
2022-10-17T15:14:44.102Z,54.64
2022-10-17T15:17:16.231Z,54.30
2022-10-17T15:19:44.190Z,55.11
2022-10-17T15:22:16.411Z,54.69
2022-10-17T15:24:46.165Z,54.54
2022-10-17T15:27:18.512Z,54.79
2022-10-17T15:29:47.499Z,53.99
2022-10-17T15:32:15.713Z,53.88
2022-10-17T15:34:45.815Z,53.00
2022-10-17T15:37:22.507Z,53.30
2022-10-17T15:39:53.602Z,54.09
2022-10-17T15:42:23.241Z,54.64
2022-10-17T15:44:53.362Z,54.02
2022-10-17T15:47:27.168Z,54.89
2022-10-17T15:49:55.989Z,54.28
2022-10-17T15:52:26.051Z,55.24
2022-10-17T15:54:56.471Z,54.92
2022-10-17T15:57:30.739Z,54.86
2022-10-17T16:00:00.615Z,55.13
2022-10-17T16:02:29.198Z,54.66
2022-10-17T16:04:57.316Z,55.10
2022-10-17T16:07:29.348Z,55.94
2022-10-17T16:09:58.301Z,55.58
2022-10-17T16:12:31.339Z,54.79
2022-10-17T16:14:59.459Z,53.77
2022-10-17T16:17:27.744Z,53.92
2022-10-17T16:19:55.819Z,54.11
2022-10-17T16:22:32.412Z,53.99
2022-10-17T16:25:09.347Z,54.52
2022-10-17T16:27:39.131Z,54.54
2022-10-17T16:30:09.622Z,54.53
2022-10-17T16:32:37.627Z,55.88
2022-10-17T16:35:07.582Z,55.67
2022-10-17T16:37:37.751Z,56.17
2022-10-17T16:40:08.019Z,55.70
2022-10-17T16:42:36.301Z,55.70
2022-10-17T16:45:04.985Z,56.86
2022-10-17T16:47:33.001Z,56.50
2022-10-17T16:50:01.302Z,55.73
2022-10-17T16:52:33.290Z,56.20
2022-10-17T16:55:02.845Z,57.41
2022-10-17T16:57:32.324Z,58.22
2022-10-17T17:00:03.781Z,58.04
2022-10-17T17:02:32.084Z,57.62
2022-10-17T17:05:00.204Z,57.47
2022-10-17T17:07:30.458Z,56.85
2022-10-17T17:09:58.667Z,57.85
2022-10-17T17:12:28.511Z,57.86
2022-10-17T17:14:57.574Z,58.60
2022-10-17T17:17:30.812Z,58.27
2022-10-17T17:20:06.380Z,58.37
2022-10-17T17:22:36.541Z,57.91
2022-10-17T17:25:04.892Z,59.35
2022-10-17T17:27:36.752Z,59.88
2022-10-17T17:30:07.923Z,59.51
2022-10-17T17:32:36.145Z,59.26
2022-10-17T17:35:07.315Z,58.96
2022-10-17T17:37:35.662Z,58.70
2022-10-17T17:40:05.931Z,58.44
2022-10-17T17:42:35.789Z,58.54
2022-10-17T17:45:04.254Z,59.54
2022-10-17T17:47:32.701Z,59.22
2022-10-17T17:50:00.864Z,59.11
2022-10-17T17:52:29.877Z,58.14
2022-10-17T17:54:58.130Z,58.55
2022-10-17T17:57:26.266Z,60.12
2022-10-17T17:59:56.349Z,61.01
2022-10-17T18:02:24.400Z,59.50
2022-10-17T18:04:53.556Z,58.97
2022-10-17T18:07:21.839Z,59.21
2022-10-17T18:09:53.091Z,57.93
2022-10-17T18:12:21.343Z,58.16
2022-10-17T18:14:49.436Z,58.00
2022-10-17T18:17:18.902Z,57.32
2022-10-17T18:19:46.830Z,58.19
2022-10-17T18:31:12.261Z,59.74
2022-10-17T18:33:44.613Z,60.23
2022-10-17T18:36:14.427Z,60.69
2022-10-17T18:38:43.824Z,59.11
2022-10-17T18:41:13.818Z,59.26
2022-10-17T18:43:44.248Z,58.37
2022-10-17T18:46:14.927Z,58.49
2022-10-17T18:48:46.231Z,58.00
2022-10-17T18:51:16.093Z,58.09
2022-10-17T18:53:45.401Z,58.33
2022-10-17T18:56:14.440Z,59.26
2022-10-17T18:58:43.244Z,59.11
2022-10-17T19:01:15.364Z,59.70
2022-10-17T19:03:43.748Z,61.33
2022-10-17T19:06:15.141Z,61.40
2022-10-17T19:08:44.150Z,59.79
2022-10-17T19:11:14.443Z,59.80
2022-10-17T19:13:43.123Z,61.23
2022-10-17T19:16:13.153Z,60.44
2022-10-17T19:18:41.365Z,59.17
2022-10-17T19:21:11.320Z,58.59
2022-10-17T19:23:40.779Z,60.52
2022-10-17T19:26:11.456Z,61.02
2022-10-17T19:28:41.690Z,59.75
2022-10-17T19:31:14.079Z,62.44
2022-10-17T19:33:45.020Z,59.63
2022-10-17T19:36:16.560Z,59.64
2022-10-17T19:38:46.351Z,61.69
2022-10-17T19:41:16.704Z,61.72
2022-10-17T19:43:45.868Z,61.63
2022-10-17T19:46:15.387Z,60.06
2022-10-17T19:48:43.794Z,60.08
2022-10-17T19:51:13.847Z,59.32
2022-10-17T19:53:44.440Z,59.25
2022-10-17T19:56:18.504Z,60.20
2022-10-17T19:58:46.772Z,59.97
2022-10-17T20:01:16.795Z,59.80
2022-10-17T20:03:45.078Z,61.95
2022-10-17T20:06:13.631Z,62.19
2022-10-17T20:08:42.713Z,61.52
2022-10-17T20:11:15.300Z,60.92
2022-10-17T20:13:44.829Z,62.41
2022-10-17T20:16:18.263Z,60.44
2022-10-17T20:18:46.895Z,60.33
2022-10-17T20:21:20.679Z,61.00
2022-10-17T20:23:49.008Z,60.43
2022-10-17T20:29:15.018Z,59.95
2022-10-17T20:31:44.963Z,60.98
2022-10-17T20:34:15.359Z,60.76
2022-10-17T20:36:43.410Z,60.66
2022-10-17T20:39:13.087Z,61.29
2022-10-17T20:41:42.738Z,59.63
2022-10-17T20:44:11.147Z,60.81
2022-10-17T20:46:45.309Z,61.94
2022-10-17T20:49:22.817Z,62.81
2022-10-17T20:51:51.167Z,62.89
2022-10-17T20:54:19.092Z,64.20
2022-10-17T20:56:48.769Z,66.10
2022-10-17T20:59:18.484Z,63.34
2022-10-17T21:01:47.380Z,63.05
2022-10-17T21:07:04.633Z,60.68
2022-10-17T21:09:32.694Z,62.29
2022-10-17T21:12:05.168Z,61.32
2022-10-17T21:14:36.372Z,60.33
2022-10-17T21:17:05.453Z,59.93
2022-10-17T21:19:33.647Z,62.05
2022-10-17T21:22:01.797Z,60.59
2022-10-17T21:24:30.289Z,62.14
2022-10-17T21:26:58.859Z,63.04
2022-10-17T21:29:28.445Z,63.14
2022-10-17T21:31:56.459Z,64.78
2022-10-17T21:34:25.599Z,63.84
2022-10-17T21:36:53.784Z,64.65
2022-10-17T21:39:24.162Z,64.34
2022-10-17T21:41:53.163Z,66.99
2022-10-17T21:44:25.031Z,66.65
2022-10-17T21:46:55.618Z,65.90
2022-10-17T21:49:26.514Z,65.82
2022-10-17T21:51:55.227Z,66.01
2022-10-17T21:54:24.185Z,65.96
2022-10-17T21:56:53.493Z,65.32
2022-10-17T21:59:21.668Z,64.86
2022-10-17T22:01:49.756Z,62.92
2022-10-17T22:04:20.430Z,63.14
2022-10-17T22:06:52.391Z,64.04
2022-10-17T22:09:22.304Z,64.79
2022-10-17T22:11:51.662Z,63.89
2022-10-17T22:14:21.159Z,66.04
2022-10-17T22:16:50.049Z,64.96
2022-10-17T22:19:22.832Z,63.85
2022-10-17T22:21:51.502Z,66.41
2022-10-17T22:26:49.624Z,63.33
2022-10-17T22:29:18.123Z,63.89
2022-10-17T22:31:46.109Z,62.97
2022-10-17T22:34:15.744Z,62.78
2022-10-17T22:36:45.305Z,63.57
2022-10-17T22:39:13.197Z,63.89
2022-10-17T22:41:41.106Z,63.05
2022-10-17T22:44:09.413Z,62.66
2022-10-17T22:46:37.356Z,61.29
2022-10-17T22:49:05.590Z,60.87
2022-10-17T22:51:33.494Z,61.66
2022-10-17T22:54:02.815Z,63.01
2022-10-17T22:56:30.694Z,63.71
2022-10-17T22:58:58.580Z,63.53
2022-10-17T23:01:27.260Z,64.44
2022-10-17T23:03:55.293Z,63.02
2022-10-17T23:06:23.614Z,61.57
2022-10-17T23:08:52.245Z,63.41
2022-10-17T23:11:22.218Z,62.53
2022-10-17T23:13:50.190Z,61.84
2022-10-17T23:16:18.356Z,62.25
2022-10-17T23:18:46.694Z,62.21
2022-10-17T23:21:14.788Z,62.63
2022-10-17T23:23:42.732Z,61.98
2022-10-17T23:26:15.646Z,62.29
2022-10-17T23:28:44.917Z,62.47
2022-10-17T23:31:15.156Z,62.39
2022-10-17T23:33:44.899Z,62.07
2022-10-17T23:36:13.722Z,61.80
2022-10-17T23:38:43.572Z,61.95
2022-10-17T23:41:12.071Z,60.47
2022-10-17T23:43:40.422Z,60.10
2022-10-17T23:46:10.383Z,59.55
2022-10-17T23:48:38.712Z,59.34
2022-10-17T23:51:07.540Z,59.46
2022-10-17T23:53:35.772Z,62.37
2022-10-17T23:56:03.613Z,61.09
2022-10-17T23:58:31.914Z,61.53
